Main page
METAR-TAF:

METAR-TAF

Airports :

Sarzana, Italy

Aeroporto di Sarzana-Luni

latitude: 44-05N, longitude: 009-59E, elevation: 9 m

Current weather observation

The report was made 1 hour and 14 minutes ago, at 09:55 UTC
Wind 2 kt from the West
Temperature 14°C
Humidity 67%
Pressure 1021 hPa
Visibility 10 km or more
Few clouds at a height of 4000 ft

METAR: LIQW 230955Z 27002KT 9999 FEW040 14/08 Q1021 RMK FEW VIS MIN 9999 WIND THR18 30003KT BLU

Time: 12:09 (11:09 UTC)


TAF: missing

Weather observations and forecasts of more than 4000 airports (METAR and TAF reports).

The available stations are represented by yellow and red dots on the map.

Hover mouse over dot to see the name of the station.

Then click to see weather observations and forecasts.

To change the map : click on the green buttons with a black cross to zoom in, on the green button with a dash to zoom out, or on the green arrows for adjacent maps.


METAR-TAF: